Hamletsburg, Illinois
Current Conditions -  °F | °C
As of 1:35 PM on Saturday 25 Oct 2014 (Local Time) from KM30 Reporting Station
Clear Clear  
Wind Chill: 76°   Ceiling: Unl
Heat Index: 78°   Visibility: 10mi
Dew Point: 63°   Wind: 6mph
Humidity: 63%   Direction: 270°W
Pressure: 30.01"   Gusts: NA
Location:  37.14°N, 88.45°W
Report Text: KM30 251835Z AUTO 27005KT 10SM CLR 25/17 A3001 RMK AO2 T02470173
Loading
Personal Weather Stations






























Interactive Weather Map
Tropical Storm Tracking
New forecast layout! Learn more

10-Day Weather Forecast

Advertisements
Track Severe Weather on mobile